Horizon II — 3FHB4 — position and weather

sailwx.info

Track history (hours):
 
Tides and Currents Weather Stations Pressure Air Temp Water Temp Dewpoint Dewpoint Depression Visibility Wind Speed Wind Dir Waves Ship Positions

Horizon II

Last reported at 2017-Apr-23 10:15 UTC. Time now 2017-Apr-27 18:43 UTC.
Position N 44°38' W 010°30'.

Length 255 m; draft 10.1 m.

Type: Cargo ship. MMSI: 357568000.

Date/timePositionNaut miles runAvg speedWind from/ knotsBaromVisibWave heightAir tempDewpointWater temp
2017-Apr-23 10:15N 44°38' W 010°30'311.8
2017-Apr-23 09:59N 44°35' W 010°30'912.0
2017-Apr-23 09:12N 44°25' W 010°29'412.0
2017-Apr-23 08:52N 44°21' W 010°29'512.1
2017-Apr-23 08:26N 44°16' W 010°28'14611.8
2017-Apr-22 20:03N 41°51' W 010°14'111.8
2017-Apr-22 19:58N 41°50' W 010°14'711.6
2017-Apr-22 19:23N 41°43' W 010°13'511.8
2017-Apr-22 19:00N 41°38' W 010°13'10812.2
2017-Apr-22 10:09N 39°51' W 009°59'812.4
2017-Apr-22 09:28N 39°43' W 009°58'612.1
2017-Apr-22 08:56N 39°36' W 009°57'612.2
2017-Apr-22 08:25N 39°30' W 009°57'512.5
2017-Apr-22 08:01N 39°25' W 009°56'612.9
2017-Apr-22 07:30N 39°19' W 009°55'612.5
2017-Apr-22 07:00N 39°12' W 009°54'612.6
2017-Apr-22 06:31N 39°06' W 009°53'612.4
2017-Apr-22 06:00N 38°60' W 009°53'612.4
2017-Apr-22 05:30N 38°54' W 009°52'612.7
2017-Apr-22 05:00N 38°47' W 009°51'612.8
2017-Apr-22 04:30N 38°41' W 009°50'612.8
2017-Apr-22 04:00N 38°35' W 009°49'713.1
2017-Apr-22 03:30N 38°28' W 009°47'713.2
2017-Apr-22 03:00N 38°22' W 009°45'713.2
2017-Apr-22 02:30N 38°16' W 009°43'612.9
2017-Apr-22 02:00N 38°09' W 009°41'712.9
2017-Apr-22 01:28N 38°03' W 009°39'612.8
2017-Apr-22 01:00N 37°57' W 009°37'612.8
2017-Apr-22 00:30N 37°51' W 009°36'7811.6
2017-Apr-21 17:45N 36°41' W 008°52'15912.7
2017-Apr-21 05:14N 35°57' W 005°43'312.9
2017-Apr-21 04:58N 35°57' W 005°39'612.6
2017-Apr-21 04:30N 35°59' W 005°32'611.8
2017-Apr-21 04:00N 36°01' W 005°25'612.0
2017-Apr-21 03:30N 36°02' W 005°18'611.9
2017-Apr-21 03:00N 36°03' W 005°11'  
2017-Apr-17 23:50N 36°37' E 013°48'513.1
2017-Apr-17 23:26N 36°35' E 013°54'712.9
2017-Apr-17 22:52N 36°33' E 014°02'1212.7
2017-Apr-17 21:57N 36°28' E 014°16'612.7
2017-Apr-17 21:28N 36°26' E 014°23'612.4
2017-Apr-17 21:00N 36°24' E 014°30'612.5
2017-Apr-17 20:30N 36°22' E 014°37'  
2017-Apr-14 12:31N 32°32' E 034°35'012.9
2017-Apr-14 12:29N 32°32' E 034°35'612.9
2017-Apr-14 12:00N 32°31' E 034°42'612.2
2017-Apr-14 11:30N 32°30' E 034°49'3 5.1
2017-Apr-14 11:00N 32°28' E 034°52'0 0.1
2017-Apr-14 10:30N 32°28' E 034°52'0 0.0
2017-Apr-14 10:00N 32°28' E 034°52'0 0.0
2017-Apr-14 09:30N 32°28' E 034°52'0 0.0
2017-Apr-14 09:00N 32°28' E 034°52'0 0.0
2017-Apr-14 08:30N 32°28' E 034°52'0 0.0
2017-Apr-14 08:00N 32°28' E 034°52'0 0.0
2017-Apr-14 07:30N 32°28' E 034°52'0 0.0
2017-Apr-14 07:00N 32°28' E 034°52'0 0.0
2017-Apr-14 06:30N 32°28' E 034°52'0 0.0
2017-Apr-14 06:00N 32°28' E 034°52'0 0.0
2017-Apr-14 05:30N 32°28' E 034°52'0 0.0
2017-Apr-14 05:00N 32°28' E 034°52'0 0.0
2017-Apr-14 04:30N 32°28' E 034°52'0 0.0
2017-Apr-14 03:57N 32°28' E 034°52'0 0.0
2017-Apr-14 03:30N 32°28' E 034°52'0 0.0
2017-Apr-14 03:00N 32°28' E 034°52'0 0.0
2017-Apr-14 02:30N 32°28' E 034°52'0 0.0
2017-Apr-14 02:00N 32°28' E 034°52'0 0.0
2017-Apr-14 01:27N 32°28' E 034°52'0 0.0
2017-Apr-14 01:00N 32°28' E 034°52'0 0.0
2017-Apr-14 00:30N 32°28' E 034°52'0 0.0
2017-Apr-14 00:00N 32°28' E 034°52'0 0.0
2017-Apr-13 23:30N 32°28' E 034°52'0 0.0
2017-Apr-13 23:00N 32°28' E 034°52'0 0.0
2017-Apr-13 22:30N 32°28' E 034°52'0 0.0
2017-Apr-13 22:00N 32°28' E 034°52'0 0.0
2017-Apr-13 21:30N 32°28' E 034°52'0 0.0
2017-Apr-13 21:00N 32°28' E 034°52'0 0.0
2017-Apr-13 20:30N 32°28' E 034°52'0 0.0
2017-Apr-13 20:00N 32°28' E 034°52'0 0.0
2017-Apr-13 19:30N 32°28' E 034°52'0 0.0
2017-Apr-13 19:00N 32°28' E 034°52'0 0.0
2017-Apr-13 18:30N 32°28' E 034°52'0 0.0
2017-Apr-13 18:00N 32°28' E 034°52'0 0.0
2017-Apr-13 17:30N 32°28' E 034°52'0 0.0
2017-Apr-13 17:00N 32°28' E 034°52'0 0.0
2017-Apr-13 16:30N 32°28' E 034°52'0 0.0
2017-Apr-13 16:00N 32°28' E 034°52'0 0.0
2017-Apr-13 15:30N 32°28' E 034°52'0 0.0
2017-Apr-13 15:00N 32°28' E 034°52'0 0.0
2017-Apr-13 14:30N 32°28' E 034°52'0 0.0
2017-Apr-13 13:30N 32°28' E 034°52'0 0.0
2017-Apr-13 13:00N 32°28' E 034°52'0 0.0
2017-Apr-13 12:30N 32°28' E 034°52'0 0.0
2017-Apr-13 12:00N 32°28' E 034°52'0 0.0
2017-Apr-13 11:30N 32°28' E 034°52'0 0.0
2017-Apr-13 11:00N 32°28' E 034°52'0 0.0
2017-Apr-13 10:30N 32°28' E 034°52'  
Track history (hours):
 
Tides and Currents Weather Stations Pressure Air Temp Water Temp Dewpoint Dewpoint Depression Visibility Wind Speed Wind Dir Waves Ship Positions

Horizon II

Last reported at 2017-Apr-23 10:15 UTC. Time now 2017-Apr-27 18:43 UTC.
Position N 44°38' W 010°30'.

Length 255 m; draft 10.1 m.

Type: Cargo ship. MMSI: 357568000.

Date/timePositionNaut miles runAvg speedWind from/ knotsBaromVisibWave heightAir tempDewpointWater temp
2017-Apr-23 10:15N 44°38' W 010°30'311.8
2017-Apr-23 09:59N 44°35' W 010°30'912.0
2017-Apr-23 09:12N 44°25' W 010°29'412.0
2017-Apr-23 08:52N 44°21' W 010°29'512.1
2017-Apr-23 08:26N 44°16' W 010°28'14611.8
2017-Apr-22 20:03N 41°51' W 010°14'111.8
2017-Apr-22 19:58N 41°50' W 010°14'711.6
2017-Apr-22 19:23N 41°43' W 010°13'511.8
2017-Apr-22 19:00N 41°38' W 010°13'10812.2
2017-Apr-22 10:09N 39°51' W 009°59'812.4
2017-Apr-22 09:28N 39°43' W 009°58'612.1
2017-Apr-22 08:56N 39°36' W 009°57'612.2
2017-Apr-22 08:25N 39°30' W 009°57'512.5
2017-Apr-22 08:01N 39°25' W 009°56'612.9
2017-Apr-22 07:30N 39°19' W 009°55'612.5
2017-Apr-22 07:00N 39°12' W 009°54'612.6
2017-Apr-22 06:31N 39°06' W 009°53'612.4
2017-Apr-22 06:00N 38°60' W 009°53'612.4
2017-Apr-22 05:30N 38°54' W 009°52'612.7
2017-Apr-22 05:00N 38°47' W 009°51'612.8
2017-Apr-22 04:30N 38°41' W 009°50'612.8
2017-Apr-22 04:00N 38°35' W 009°49'713.1
2017-Apr-22 03:30N 38°28' W 009°47'713.2
2017-Apr-22 03:00N 38°22' W 009°45'713.2
2017-Apr-22 02:30N 38°16' W 009°43'612.9
2017-Apr-22 02:00N 38°09' W 009°41'712.9
2017-Apr-22 01:28N 38°03' W 009°39'612.8
2017-Apr-22 01:00N 37°57' W 009°37'612.8
2017-Apr-22 00:30N 37°51' W 009°36'7811.6
2017-Apr-21 17:45N 36°41' W 008°52'15912.7
2017-Apr-21 05:14N 35°57' W 005°43'312.9
2017-Apr-21 04:58N 35°57' W 005°39'612.6
2017-Apr-21 04:30N 35°59' W 005°32'611.8
2017-Apr-21 04:00N 36°01' W 005°25'612.0
2017-Apr-21 03:30N 36°02' W 005°18'611.9
2017-Apr-21 03:00N 36°03' W 005°11'  
2017-Apr-17 23:50N 36°37' E 013°48'513.1
2017-Apr-17 23:26N 36°35' E 013°54'712.9
2017-Apr-17 22:52N 36°33' E 014°02'1212.7
2017-Apr-17 21:57N 36°28' E 014°16'612.7
2017-Apr-17 21:28N 36°26' E 014°23'612.4
2017-Apr-17 21:00N 36°24' E 014°30'612.5
2017-Apr-17 20:30N 36°22' E 014°37'  
2017-Apr-14 12:31N 32°32' E 034°35'012.9
2017-Apr-14 12:29N 32°32' E 034°35'612.9
2017-Apr-14 12:00N 32°31' E 034°42'612.2
2017-Apr-14 11:30N 32°30' E 034°49'3 5.1
2017-Apr-14 11:00N 32°28' E 034°52'0 0.1
2017-Apr-14 10:30N 32°28' E 034°52'0 0.0
2017-Apr-14 10:00N 32°28' E 034°52'0 0.0
2017-Apr-14 09:30N 32°28' E 034°52'0 0.0
2017-Apr-14 09:00N 32°28' E 034°52'0 0.0
2017-Apr-14 08:30N 32°28' E 034°52'0 0.0
2017-Apr-14 08:00N 32°28' E 034°52'0 0.0
2017-Apr-14 07:30N 32°28' E 034°52'0 0.0
2017-Apr-14 07:00N 32°28' E 034°52'0 0.0
2017-Apr-14 06:30N 32°28' E 034°52'0 0.0
2017-Apr-14 06:00N 32°28' E 034°52'0 0.0
2017-Apr-14 05:30N 32°28' E 034°52'0 0.0
2017-Apr-14 05:00N 32°28' E 034°52'0 0.0
2017-Apr-14 04:30N 32°28' E 034°52'0 0.0
2017-Apr-14 03:57N 32°28' E 034°52'0 0.0
2017-Apr-14 03:30N 32°28' E 034°52'0 0.0
2017-Apr-14 03:00N 32°28' E 034°52'0 0.0
2017-Apr-14 02:30N 32°28' E 034°52'0 0.0
2017-Apr-14 02:00N 32°28' E 034°52'0 0.0
2017-Apr-14 01:27N 32°28' E 034°52'0 0.0
2017-Apr-14 01:00N 32°28' E 034°52'0 0.0
2017-Apr-14 00:30N 32°28' E 034°52'0 0.0
2017-Apr-14 00:00N 32°28' E 034°52'0 0.0
2017-Apr-13 23:30N 32°28' E 034°52'0 0.0
2017-Apr-13 23:00N 32°28' E 034°52'0 0.0
2017-Apr-13 22:30N 32°28' E 034°52'0 0.0
2017-Apr-13 22:00N 32°28' E 034°52'0 0.0
2017-Apr-13 21:30N 32°28' E 034°52'0 0.0
2017-Apr-13 21:00N 32°28' E 034°52'0 0.0
2017-Apr-13 20:30N 32°28' E 034°52'0 0.0
2017-Apr-13 20:00N 32°28' E 034°52'0 0.0
2017-Apr-13 19:30N 32°28' E 034°52'0 0.0
2017-Apr-13 19:00N 32°28' E 034°52'0 0.0
2017-Apr-13 18:30N 32°28' E 034°52'0 0.0
2017-Apr-13 18:00N 32°28' E 034°52'0 0.0
2017-Apr-13 17:30N 32°28' E 034°52'0 0.0
2017-Apr-13 17:00N 32°28' E 034°52'0 0.0
2017-Apr-13 16:30N 32°28' E 034°52'0 0.0
2017-Apr-13 16:00N 32°28' E 034°52'0 0.0
2017-Apr-13 15:30N 32°28' E 034°52'0 0.0
2017-Apr-13 15:00N 32°28' E 034°52'0 0.0
2017-Apr-13 14:30N 32°28' E 034°52'0 0.0
2017-Apr-13 13:30N 32°28' E 034°52'0 0.0
2017-Apr-13 13:00N 32°28' E 034°52'0 0.0
2017-Apr-13 12:30N 32°28' E 034°52'0 0.0
2017-Apr-13 12:00N 32°28' E 034°52'0 0.0
2017-Apr-13 11:30N 32°28' E 034°52'0 0.0
2017-Apr-13 11:00N 32°28' E 034°52'0 0.0
2017-Apr-13 10:30N 32°28' E 034°52'  

Dump ship's entire track history